Time;durP1;ratioP1;P1;durP2;ratioP2;P2;SDS_P1;SDS_P2;PMS_P1;PMS_P2;Temp;Humidity;BMP_temperature;BMP_pressure;BME280_temperature;BME280_humidity;BME280_pressure;Samples;Min_cycle;Max_cycle;Signal;HPM_P1;HPM_P2
2023/02/03 00:02:27;;;;;;;30.58;18.73;;;;;;;;;;5034240;28;20061;-90
2023/02/03 00:04:54;;;;;;;23.23;14.95;;;;;;;;;;5033983;28;20485;-89
2023/02/03 00:07:21;;;;;;;27.48;15.75;;;;;;;;;;5034148;28;20156;-90
2023/02/03 00:09:48;;;;;;;20.95;13.55;;;;;;;;;;5034490;28;20053;-90
2023/02/03 00:12:15;;;;;;;9.02;7.25;;;;;;;;;;5034037;28;20046;-91
2023/02/03 00:14:42;;;;;;;4.30;3.25;;;;;;;;;;5033910;28;20546;-90
2023/02/03 00:17:10;;;;;;;1.75;1.48;;;;;;;;;;5044996;28;20108;-91
2023/02/03 00:19:37;;;;;;;6.50;4.47;;;;;;;;;;5043221;28;20065;-90
2023/02/03 00:22:04;;;;;;;8.63;4.43;;;;;;;;;;5033724;28;20079;-91
2023/02/03 00:24:31;;;;;;;1.20;1.20;;;;;;;;;;5033670;28;20263;-90
2023/02/03 00:26:59;;;;;;;1.35;1.25;;;;;;;;;;5033386;28;20132;-91
2023/02/03 00:29:26;;;;;;;1.48;1.00;;;;;;;;;;5033730;28;20055;-90
2023/02/03 00:31:53;;;;;;;4.05;2.92;;;;;;;;;;5033703;28;20456;-90
2023/02/03 00:34:21;;;;;;;11.02;7.28;;;;;;;;;;5033592;28;20045;-90
2023/02/03 00:36:48;;;;;;;1.33;1.15;;;;;;;;;;5033704;28;20482;-91
2023/02/03 00:39:15;;;;;;;4.18;1.15;;;;;;;;;;5033561;28;20092;-90
2023/02/03 00:41:42;;;;;;;13.18;6.18;;;;;;;;;;5033480;28;20494;-90
2023/02/03 00:44:10;;;;;;;5.93;4.65;;;;;;;;;;5033343;28;20107;-90
2023/02/03 00:46:37;;;;;;;7.28;5.68;;;;;;;;;;5033137;28;20395;-90
2023/02/03 00:49:05;;;;;;;7.53;6.22;;;;;;;;;;5033525;28;20552;-91
2023/02/03 00:51:33;;;;;;;1.02;1.02;;;;;;;;;;5033430;28;20062;-91
2023/02/03 00:54:00;;;;;;;1.52;0.73;;;;;;;;;;5033266;28;20049;-91
2023/02/03 00:56:27;;;;;;;7.10;5.28;;;;;;;;;;5032834;28;20079;-90
2023/02/03 00:58:54;;;;;;;7.72;4.90;;;;;;;;;;5033271;28;20065;-91
2023/02/03 01:01:21;;;;;;;7.55;4.30;;;;;;;;;;5032209;28;20132;-91
2023/02/03 01:03:51;;;;;;;1.10;1.10;;;;;;;;;;5033503;28;20099;-92
2023/02/03 01:06:19;;;;;;;2.05;1.00;;;;;;;;;;5032963;28;20078;-92
2023/02/03 01:08:47;;;;;;;2.35;1.80;;;;;;;;;;5033044;28;20414;-92
2023/02/03 01:11:16;;;;;;;1.95;1.08;;;;;;;;;;5033037;28;20196;-92
2023/02/03 01:13:43;;;;;;;1.33;1.27;;;;;;;;;;5033102;28;20067;-92
2023/02/03 01:16:12;;;;;;;2.05;1.77;;;;;;;;;;5032920;28;20060;-92
2023/02/03 01:18:39;;;;;;;2.45;2.25;;;;;;;;;;5032712;28;20057;-92
2023/02/03 01:21:07;;;;;;;2.33;1.92;;;;;;;;;;5033170;28;20053;-92
2023/02/03 01:23:35;;;;;;;1.80;1.40;;;;;;;;;;5032856;28;20053;-92
2023/02/03 01:26:03;;;;;;;1.20;1.17;;;;;;;;;;5032692;28;20080;-92
2023/02/03 01:28:31;;;;;;;2.13;1.90;;;;;;;;;;5033136;28;20474;-92
2023/02/03 01:30:58;;;;;;;3.13;2.70;;;;;;;;;;5045854;28;20109;-92
2023/02/03 01:33:25;;;;;;;4.07;2.80;;;;;;;;;;5039965;28;20053;-92
2023/02/03 01:35:52;;;;;;;3.08;2.70;;;;;;;;;;5032615;28;20053;-92
2023/02/03 01:38:20;;;;;;;7.07;3.28;;;;;;;;;;5032450;28;20132;-93
2023/02/03 01:40:47;;;;;;;3.30;2.80;;;;;;;;;;5032589;28;20052;-91
2023/02/03 01:43:28;;;;;;;1.38;1.27;;;;;;;;;;5032606;28;20103;-89
2023/02/03 01:45:56;;;;;;;2.75;2.55;;;;;;;;;;5032598;28;20071;-91
2023/02/03 01:48:23;;;;;;;4.15;3.50;;;;;;;;;;5033943;28;20049;-91
2023/02/03 01:50:51;;;;;;;6.80;3.40;;;;;;;;;;5033778;28;20053;-89
2023/02/03 01:53:18;;;;;;;4.88;4.00;;;;;;;;;;5032668;28;20065;-91
2023/02/03 01:55:47;;;;;;;5.95;3.22;;;;;;;;;;5032503;28;20060;-92
2023/02/03 01:58:21;;;;;;;7.57;5.75;;;;;;;;;;5032510;28;20482;-92
2023/02/03 02:00:52;;;;;;;5.25;3.75;;;;;;;;;;5032365;28;20049;-92
2023/02/03 02:03:20;;;;;;;3.28;2.97;;;;;;;;;;5032469;28;20053;-91
2023/02/03 02:05:50;;;;;;;5.63;3.67;;;;;;;;;;5032299;28;20103;-92
2023/02/03 02:08:18;;;;;;;4.63;3.03;;;;;;;;;;5032334;28;20061;-91
2023/02/03 02:10:45;;;;;;;3.70;3.20;;;;;;;;;;5032643;28;20054;-92
2023/02/03 02:13:13;;;;;;;6.47;3.97;;;;;;;;;;5035724;28;20060;-92
2023/02/03 02:16:11;;;;;;;3.72;2.92;;;;;;;;;;5036157;28;20085;-92
2023/02/03 02:18:50;;;;;;;3.17;2.90;;;;;;;;;;5001206;28;20061;-92
2023/02/03 02:21:20;;;;;;;2.70;2.50;;;;;;;;;;5036139;28;20120;-92
2023/02/03 02:23:55;;;;;;;3.60;3.00;;;;;;;;;;5036065;28;20053;-92
2023/02/03 02:26:39;;;;;;;9.10;3.67;;;;;;;;;;5035836;28;20053;-92
2023/02/03 02:29:21;;;;;;;6.45;3.05;;;;;;;;;;5035814;28;20051;-92
2023/02/03 02:31:58;;;;;;;2.90;2.70;;;;;;;;;;5036094;28;20053;-92
2023/02/03 02:34:37;;;;;;;4.70;4.28;;;;;;;;;;5035860;28;20057;-92
2023/02/03 02:37:22;;;;;;;5.88;5.28;;;;;;;;;;5035946;28;20061;-92
2023/02/03 02:40:08;;;;;;;6.57;4.88;;;;;;;;;;5035861;28;20053;-92
2023/02/03 02:42:42;;;;;;;4.40;4.00;;;;;;;;;;5036406;28;20061;-91
2023/02/03 02:45:09;;;;;;;3.47;3.17;;;;;;;;;;5054142;28;20164;-92
2023/02/03 02:47:37;;;;;;;3.85;3.55;;;;;;;;;;5037634;28;20049;-92
2023/02/03 02:50:06;;;;;;;3.05;2.85;;;;;;;;;;5034950;28;20088;-92
2023/02/03 02:52:36;;;;;;;3.00;2.80;;;;;;;;;;5035225;28;20049;-91
2023/02/03 02:55:07;;;;;;;4.88;3.08;;;;;;;;;;5035535;28;20059;-92
2023/02/03 02:57:35;;;;;;;4.30;3.63;;;;;;;;;;5035662;28;20057;-92
2023/02/03 03:00:04;;;;;;;7.43;3.70;;;;;;;;;;5035316;28;20454;-92
2023/02/03 03:02:33;;;;;;;4.22;3.63;;;;;;;;;;5035370;28;20057;-89
2023/02/03 03:05:02;;;;;;;11.45;4.47;;;;;;;;;;5035281;28;20478;-92
2023/02/03 03:07:30;;;;;;;5.97;4.50;;;;;;;;;;5034919;28;20489;-89
2023/02/03 03:09:59;;;;;;;6.50;3.90;;;;;;;;;;5035574;28;20045;-92
2023/02/03 03:12:29;;;;;;;9.45;4.60;;;;;;;;;;5035446;28;20054;-92
2023/02/03 03:14:59;;;;;;;7.70;4.50;;;;;;;;;;5034525;28;20076;-94
2023/02/03 03:17:29;;;;;;;9.15;5.05;;;;;;;;;;5035157;28;20401;-92
2023/02/03 03:19:58;;;;;;;8.60;4.40;;;;;;;;;;5034867;28;20422;-92
2023/02/03 03:22:29;;;;;;;7.28;5.32;;;;;;;;;;5035152;28;20041;-92
2023/02/03 03:25:02;;;;;;;9.65;5.95;;;;;;;;;;5034116;28;20060;-92
2023/02/03 03:27:32;;;;;;;7.38;5.75;;;;;;;;;;5034810;28;20045;-92
2023/02/03 03:30:01;;;;;;;7.70;6.05;;;;;;;;;;5034758;28;20045;-92
2023/02/03 03:32:31;;;;;;;13.43;7.18;;;;;;;;;;5034724;28;20060;-91
2023/02/03 03:35:00;;;;;;;12.48;6.65;;;;;;;;;;5035088;28;20401;-91
2023/02/03 03:37:41;;;;;;;7.32;6.00;;;;;;;;;;5035040;28;20047;-90
2023/02/03 03:40:18;;;;;;;5.75;5.07;;;;;;;;;;5034835;28;20045;-92
2023/02/03 03:42:49;;;;;;;18.88;10.20;;;;;;;;;;5034760;28;20124;-92
2023/02/03 03:45:39;;;;;;;17.83;12.23;;;;;;;;;;5034776;28;20561;-92
2023/02/03 03:48:15;;;;;;;8.02;6.18;;;;;;;;;;5034862;28;20409;-92
2023/02/03 03:50:45;;;;;;;12.07;7.28;;;;;;;;;;5034975;28;20136;-92
2023/02/03 03:53:14;;;;;;;8.60;6.55;;;;;;;;;;5034573;28;20065;-92
2023/02/03 03:55:42;;;;;;;12.13;6.78;;;;;;;;;;5035120;28;20387;-92
2023/02/03 03:58:10;;;;;;;10.45;7.53;;;;;;;;;;5052411;28;20097;-92
2023/02/03 04:00:38;;;;;;;10.20;8.02;;;;;;;;;;5036929;28;20053;-92
2023/02/03 04:03:11;;;;;;;10.52;7.95;;;;;;;;;;5034179;28;20052;-91
2023/02/03 04:05:39;;;;;;;10.98;8.00;;;;;;;;;;5034310;28;20414;-90
2023/02/03 04:08:06;;;;;;;8.20;7.32;;;;;;;;;;5034343;28;20060;-91
2023/02/03 04:10:35;;;;;;;8.02;7.22;;;;;;;;;;5034105;28;20045;-91
2023/02/03 04:13:03;;;;;;;7.13;6.00;;;;;;;;;;5034056;28;20236;-91
2023/02/03 04:15:30;;;;;;;6.32;5.72;;;;;;;;;;5033871;28;20052;-92
2023/02/03 04:18:00;;;;;;;8.88;5.00;;;;;;;;;;5034205;28;20048;-94
2023/02/03 04:20:28;;;;;;;4.60;4.20;;;;;;;;;;5033745;28;20053;-92
2023/02/03 04:22:56;;;;;;;4.60;3.95;;;;;;;;;;5034013;28;20140;-91
2023/02/03 04:25:24;;;;;;;4.25;3.47;;;;;;;;;;5033725;28;20049;-91
2023/02/03 04:27:51;;;;;;;6.18;3.33;;;;;;;;;;5033367;28;20056;-91
2023/02/03 04:30:18;;;;;;;3.13;2.60;;;;;;;;;;5033476;28;20084;-86
2023/02/03 04:32:46;;;;;;;2.33;2.20;;;;;;;;;;5033685;28;20060;-91
2023/02/03 04:35:13;;;;;;;2.67;2.15;;;;;;;;;;5033759;28;20053;-91
2023/02/03 04:37:40;;;;;;;2.40;2.10;;;;;;;;;;5034245;28;20293;-91
2023/02/03 04:40:08;;;;;;;2.45;2.20;;;;;;;;;;5033726;28;20052;-88
2023/02/03 04:42:37;;;;;;;2.22;1.67;;;;;;;;;;5033443;28;20413;-88
2023/02/03 04:45:05;;;;;;;2.55;2.30;;;;;;;;;;5033079;28;20521;-91
2023/02/03 04:47:32;;;;;;;5.90;2.40;;;;;;;;;;5032747;28;20632;-90
2023/02/03 04:50:00;;;;;;;2.10;2.00;;;;;;;;;;5033284;28;20456;-91
2023/02/03 04:52:27;;;;;;;4.45;1.90;;;;;;;;;;5033322;28;20049;-90
2023/02/03 04:54:54;;;;;;;4.07;3.45;;;;;;;;;;5033260;28;20045;-89
2023/02/03 04:57:21;;;;;;;8.40;5.10;;;;;;;;;;5033289;28;20060;-91
2023/02/03 04:59:49;;;;;;;4.20;2.60;;;;;;;;;;5033030;28;20065;-91
2023/02/03 05:02:16;;;;;;;3.55;3.10;;;;;;;;;;5033221;28;20049;-91
2023/02/03 05:04:43;;;;;;;5.78;2.70;;;;;;;;;;5033086;28;20140;-91
2023/02/03 05:07:10;;;;;;;3.70;1.95;;;;;;;;;;5033383;28;20049;-90
2023/02/03 05:09:38;;;;;;;5.20;1.58;;;;;;;;;;5036542;28;20072;-91
2023/02/03 05:12:05;;;;;;;1.95;1.15;;;;;;;;;;5048444;28;20045;-88
2023/02/03 05:14:32;;;;;;;2.72;1.40;;;;;;;;;;5032944;28;20053;-90
2023/02/03 05:16:59;;;;;;;3.55;0.88;;;;;;;;;;5033074;28;20053;-90
2023/02/03 05:19:26;;;;;;;0.93;0.93;;;;;;;;;;5032825;28;20056;-89
2023/02/03 05:21:54;;;;;;;2.08;1.13;;;;;;;;;;5034268;28;20052;-89
2023/02/03 05:24:21;;;;;;;7.53;1.10;;;;;;;;;;5032554;28;20498;-89
2023/02/03 05:26:48;;;;;;;5.43;1.10;;;;;;;;;;5032540;28;20057;-88
2023/02/03 05:29:15;;;;;;;3.03;1.17;;;;;;;;;;5032711;28;20076;-89
2023/02/03 05:31:43;;;;;;;1.95;0.60;;;;;;;;;;5032779;28;20059;-89
2023/02/03 05:34:10;;;;;;;0.75;0.70;;;;;;;;;;5032800;28;20079;-89
2023/02/03 05:36:39;;;;;;;6.35;0.80;;;;;;;;;;5032568;28;20063;-88
2023/02/03 05:39:06;;;;;;;8.40;1.83;;;;;;;;;;5032265;28;20049;-88
2023/02/03 05:41:51;;;;;;;3.15;1.10;;;;;;;;;;5032141;28;20057;-86
2023/02/03 05:44:20;;;;;;;0.90;0.70;;;;;;;;;;5032279;28;20562;-89
2023/02/03 05:46:47;;;;;;;5.55;0.80;;;;;;;;;;5033039;28;20045;-89
2023/02/03 05:49:15;;;;;;;2.25;0.85;;;;;;;;;;5036710;28;20478;-88
2023/02/03 05:51:42;;;;;;;5.60;1.23;;;;;;;;;;5036683;28;20409;-89
2023/02/03 05:54:10;;;;;;;4.57;1.85;;;;;;;;;;5036229;28;20041;-89
2023/02/03 05:56:37;;;;;;;4.72;1.90;;;;;;;;;;5036587;28;20107;-89
2023/02/03 05:59:04;;;;;;;11.82;2.97;;;;;;;;;;5036533;28;20551;-88
2023/02/03 06:01:32;;;;;;;4.43;3.08;;;;;;;;;;5036986;28;20055;-88
2023/02/03 06:03:59;;;;;;;2.00;1.90;;;;;;;;;;5036458;28;20049;-88
2023/02/03 06:06:32;;;;;;;6.35;3.55;;;;;;;;;;5036101;28;20072;-86
2023/02/03 06:09:00;;;;;;;6.55;2.90;;;;;;;;;;5036601;28;20053;-89
2023/02/03 06:11:27;;;;;;;21.70;4.60;;;;;;;;;;5036521;28;20486;-89
2023/02/03 06:13:57;;;;;;;12.77;2.40;;;;;;;;;;5036311;28;20049;-88
2023/02/03 06:16:25;;;;;;;32.72;4.07;;;;;;;;;;5036147;28;20132;-89
2023/02/03 06:18:53;;;;;;;26.58;3.70;;;;;;;;;;5035809;28;20065;-86
2023/02/03 06:21:21;;;;;;;5.68;2.00;;;;;;;;;;5035993;28;20045;-88
2023/02/03 06:23:48;;;;;;;2.55;1.42;;;;;;;;;;5046526;28;20065;-89
2023/02/03 06:26:15;;;;;;;11.25;2.50;;;;;;;;;;5042287;28;20057;-89
2023/02/03 06:28:43;;;;;;;5.70;2.17;;;;;;;;;;5035968;28;20141;-89
2023/02/03 06:31:10;;;;;;;9.38;3.03;;;;;;;;;;5035891;28;20060;-88
2023/02/03 06:33:37;;;;;;;8.10;2.50;;;;;;;;;;5035723;28;20053;-88
2023/02/03 06:36:05;;;;;;;4.25;2.20;;;;;;;;;;5035742;28;20045;-86
2023/02/03 06:38:32;;;;;;;8.90;3.45;;;;;;;;;;5035910;28;20542;-89
2023/02/03 06:40:59;;;;;;;16.50;4.68;;;;;;;;;;5035993;28;20053;-89
2023/02/03 06:43:26;;;;;;;8.30;2.83;;;;;;;;;;5035707;28;20478;-88
2023/02/03 06:45:54;;;;;;;7.45;5.03;;;;;;;;;;5035624;28;20409;-88
2023/02/03 06:48:21;;;;;;;17.15;8.98;;;;;;;;;;5035356;28;20505;-88
2023/02/03 06:50:48;;;;;;;10.07;5.60;;;;;;;;;;5035368;28;20478;-88
2023/02/03 06:53:15;;;;;;;14.23;7.18;;;;;;;;;;5035238;28;20103;-88
2023/02/03 06:55:43;;;;;;;14.10;8.23;;;;;;;;;;5035184;28;20452;-87
2023/02/03 06:58:10;;;;;;;12.63;5.68;;;;;;;;;;5035394;28;20121;-88
2023/02/03 07:00:37;;;;;;;5.55;4.35;;;;;;;;;;5035363;28;20073;-88
2023/02/03 07:03:04;;;;;;;8.10;5.47;;;;;;;;;;5036244;28;20137;-88
2023/02/03 07:05:32;;;;;;;9.07;5.95;;;;;;;;;;5035059;28;20096;-88
2023/02/03 07:07:59;;;;;;;8.52;5.32;;;;;;;;;;5034967;28;20045;-88
2023/02/03 07:10:28;;;;;;;5.55;4.82;;;;;;;;;;5034927;28;20103;-88
2023/02/03 07:13:02;;;;;;;8.45;6.00;;;;;;;;;;5035002;28;20046;-88
2023/02/03 07:15:29;;;;;;;7.78;6.13;;;;;;;;;;5035193;28;20140;-88
2023/02/03 07:17:56;;;;;;;7.20;6.07;;;;;;;;;;5034977;28;20046;-88
2023/02/03 07:20:24;;;;;;;14.00;6.97;;;;;;;;;;5034537;28;20064;-88
2023/02/03 07:22:54;;;;;;;15.43;5.88;;;;;;;;;;5034840;28;20107;-88
2023/02/03 07:25:21;;;;;;;11.68;6.05;;;;;;;;;;5034626;28;20072;-88
2023/02/03 07:27:48;;;;;;;5.95;5.35;;;;;;;;;;5034747;28;20059;-88
2023/02/03 07:30:16;;;;;;;8.43;4.47;;;;;;;;;;5034752;28;20060;-88
2023/02/03 07:32:47;;;;;;;9.82;3.35;;;;;;;;;;5034771;28;20057;-88
2023/02/03 07:35:15;;;;;;;9.43;5.28;;;;;;;;;;5034318;28;20055;-88
2023/02/03 07:37:42;;;;;;;18.52;6.03;;;;;;;;;;5046921;28;20117;-88
2023/02/03 07:40:10;;;;;;;5.82;3.33;;;;;;;;;;5038850;28;20494;-88
2023/02/03 07:42:45;;;;;;;4.10;3.50;;;;;;;;;;5034714;28;20053;-88
2023/02/03 07:45:13;;;;;;;3.92;2.80;;;;;;;;;;5034717;28;20072;-87
2023/02/03 07:47:41;;;;;;;12.30;3.05;;;;;;;;;;5034183;28;20056;-87
2023/02/03 07:50:09;;;;;;;3.03;2.60;;;;;;;;;;5040167;28;20052;-87
2023/02/03 07:52:36;;;;;;;8.45;4.20;;;;;;;;;;5052991;28;20053;-88
2023/02/03 07:55:04;;;;;;;3.88;2.30;;;;;;;;;;5053657;28;20051;-88
2023/02/03 07:57:31;;;;;;;2.15;2.03;;;;;;;;;;5054029;28;20079;-87
2023/02/03 07:59:58;;;;;;;2.97;1.90;;;;;;;;;;5054262;28;20370;-87
2023/02/03 08:02:25;;;;;;;5.97;2.30;;;;;;;;;;5053815;28;20462;-87
2023/02/03 08:04:53;;;;;;;3.28;1.90;;;;;;;;;;5053672;28;20045;-87
2023/02/03 08:07:20;;;;;;;5.60;1.88;;;;;;;;;;5053758;28;20063;-87
2023/02/03 08:09:47;;;;;;;1.88;1.75;;;;;;;;;;5053370;28;20136;-87
2023/02/03 08:12:14;;;;;;;2.08;1.80;;;;;;;;;;5053761;28;20075;-88
2023/02/03 08:14:41;;;;;;;4.05;2.00;;;;;;;;;;5054576;28;20049;-87
2023/02/03 08:17:09;;;;;;;2.35;2.13;;;;;;;;;;5054130;28;20041;-88
2023/02/03 08:19:36;;;;;;;4.10;2.20;;;;;;;;;;5052982;28;20060;-87
2023/02/03 08:22:03;;;;;;;4.80;2.28;;;;;;;;;;5053438;28;20079;-87
2023/02/03 08:24:30;;;;;;;4.93;2.80;;;;;;;;;;5054476;28;20060;-87
2023/02/03 08:26:58;;;;;;;3.35;2.50;;;;;;;;;;5054266;28;20053;-88
2023/02/03 08:29:25;;;;;;;4.72;2.50;;;;;;;;;;5054769;28;20045;-87
2023/02/03 08:31:53;;;;;;;4.75;2.50;;;;;;;;;;5053275;28;20048;-87
2023/02/03 08:34:21;;;;;;;5.53;2.72;;;;;;;;;;5052834;28;20537;-87
2023/02/03 08:36:48;;;;;;;3.53;3.05;;;;;;;;;;5054333;28;20394;-87
2023/02/03 08:39:15;;;;;;;7.07;4.50;;;;;;;;;;5052239;28;20037;-87
2023/02/03 08:41:43;;;;;;;3.72;3.13;;;;;;;;;;5052882;28;20060;-88
2023/02/03 08:44:10;;;;;;;3.50;2.95;;;;;;;;;;5052963;28;20051;-88
2023/02/03 08:46:42;;;;;;;7.53;3.03;;;;;;;;;;5052483;28;20067;-86
2023/02/03 08:49:10;;;;;;;2.80;2.47;;;;;;;;;;5054531;28;20088;-87
2023/02/03 08:51:37;;;;;;;7.38;2.50;;;;;;;;;;5066100;28;20056;-86
2023/02/03 08:54:04;;;;;;;5.15;1.98;;;;;;;;;;5052911;28;20059;-86
2023/02/03 08:56:33;;;;;;;5.50;3.22;;;;;;;;;;5052847;28;20049;-87
2023/02/03 08:59:00;;;;;;;4.15;2.50;;;;;;;;;;5051656;28;20052;-87
2023/02/03 09:01:27;;;;;;;5.10;3.00;;;;;;;;;;5053451;28;20056;-87
2023/02/03 09:03:55;;;;;;;9.52;2.30;;;;;;;;;;5052467;28;20053;-87
2023/02/03 09:06:22;;;;;;;5.28;1.65;;;;;;;;;;5052435;28;20492;-86
2023/02/03 09:08:52;;;;;;;3.45;2.28;;;;;;;;;;5053171;28;20048;-87
2023/02/03 09:11:19;;;;;;;1.85;1.60;;;;;;;;;;5053383;28;20045;-86
2023/02/03 09:13:47;;;;;;;2.70;1.60;;;;;;;;;;5052142;28;20047;-86
2023/02/03 09:16:20;;;;;;;3.45;0.88;;;;;;;;;;5052828;28;20055;-86
2023/02/03 09:18:47;;;;;;;1.93;1.43;;;;;;;;;;5053332;28;20053;-87
2023/02/03 09:21:15;;;;;;;2.17;1.35;;;;;;;;;;5051096;28;20059;-86
2023/02/03 09:24:03;;;;;;;1.48;1.33;;;;;;;;;;5052523;28;20056;-86
2023/02/03 09:26:30;;;;;;;1.55;1.20;;;;;;;;;;5052821;28;20060;-86
2023/02/03 09:28:57;;;;;;;0.90;0.90;;;;;;;;;;5051186;28;20049;-87
2023/02/03 09:31:25;;;;;;;4.28;1.08;;;;;;;;;;5051689;28;20048;-86
2023/02/03 09:33:52;;;;;;;1.27;1.17;;;;;;;;;;5052982;28;20140;-86
2023/02/03 09:36:19;;;;;;;1.50;1.40;;;;;;;;;;5051776;28;20476;-86
2023/02/03 09:38:46;;;;;;;0.85;0.85;;;;;;;;;;5054747;28;20110;-86
2023/02/03 09:41:19;;;;;;;1.00;1.00;;;;;;;;;;5051918;28;20089;-86
2023/02/03 09:43:56;;;;;;;2.00;1.43;;;;;;;;;;5052281;28;20131;-86
2023/02/03 09:46:25;;;;;;;1.85;1.00;;;;;;;;;;5051235;28;20284;-87
2023/02/03 09:48:55;;;;;;;1.65;1.40;;;;;;;;;;5051660;28;20508;-87
2023/02/03 09:51:26;;;;;;;1.55;1.05;;;;;;;;;;5051550;28;20052;-86
2023/02/03 09:53:58;;;;;;;2.63;1.13;;;;;;;;;;5053302;28;20070;-86
2023/02/03 09:56:35;;;;;;;0.90;0.90;;;;;;;;;;5052805;28;20515;-86
2023/02/03 09:59:03;;;;;;;2.95;0.70;;;;;;;;;;5051727;28;20390;-86
2023/02/03 10:01:37;;;;;;;0.77;0.77;;;;;;;;;;5052029;28;20389;-86
2023/02/03 10:04:09;;;;;;;0.95;0.85;;;;;;;;;;5059116;28;20493;-87
2023/02/03 10:06:38;;;;;;;0.82;0.77;;;;;;;;;;5058798;28;20075;-86
2023/02/03 10:09:25;;;;;;;5.53;1.13;;;;;;;;;;5052961;28;20056;-86
2023/02/03 10:11:52;;;;;;;0.47;0.40;;;;;;;;;;5051589;28;20056;-86
2023/02/03 10:14:43;;;;;;;1.15;0.60;;;;;;;;;;5052283;28;20041;-86
2023/02/03 10:17:29;;;;;;;1.50;0.60;;;;;;;;;;5051868;28;20055;-86
2023/02/03 10:20:00;;;;;;;0.63;0.30;;;;;;;;;;5051075;28;20115;-86
2023/02/03 10:22:28;;;;;;;0.50;0.50;;;;;;;;;;5051334;28;20045;-86
2023/02/03 10:25:08;;;;;;;0.57;0.40;;;;;;;;;;5052195;28;20088;-86
2023/02/03 10:27:37;;;;;;;1.17;0.30;;;;;;;;;;5051235;28;20481;-86
2023/02/03 10:30:04;;;;;;;0.65;0.43;;;;;;;;;;5051589;28;20099;-86
2023/02/03 10:32:32;;;;;;;1.95;0.32;;;;;;;;;;5051902;28;20120;-87
2023/02/03 10:35:00;;;;;;;1.27;0.20;;;;;;;;;;5055123;28;20441;-86
2023/02/03 10:37:28;;;;;;;1.05;0.43;;;;;;;;;;5055315;28;20044;-86
2023/02/03 10:39:57;;;;;;;0.65;0.40;;;;;;;;;;5054919;28;20489;-86
2023/02/03 10:42:24;;;;;;;0.80;0.43;;;;;;;;;;5055186;28;20048;-85
2023/02/03 10:44:53;;;;;;;1.45;0.30;;;;;;;;;;5054622;28;20463;-86
2023/02/03 10:47:29;;;;;;;1.35;0.35;;;;;;;;;;5054990;28;20404;-86
2023/02/03 10:49:57;;;;;;;0.32;0.32;;;;;;;;;;5054608;28;20548;-86
2023/02/03 10:52:27;;;;;;;0.20;0.10;;;;;;;;;;5055738;28;20047;-86
2023/02/03 10:54:55;;;;;;;0.55;0.22;;;;;;;;;;5054852;28;20059;-85
2023/02/03 10:57:22;;;;;;;0.35;0.35;;;;;;;;;;5055454;28;20045;-85
2023/02/03 10:59:49;;;;;;;0.30;0.30;;;;;;;;;;5055633;28;20123;-86
2023/02/03 11:02:30;;;;;;;0.40;0.40;;;;;;;;;;5054562;28;20488;-86
2023/02/03 11:05:16;;;;;;;0.20;0.10;;;;;;;;;;5055560;28;20134;-88
2023/02/03 11:07:43;;;;;;;0.30;0.30;;;;;;;;;;5054537;28;20057;-86
2023/02/03 11:10:29;;;;;;;0.43;0.20;;;;;;;;;;5054417;28;20049;-87
2023/02/03 11:13:15;;;;;;;0.40;0.38;;;;;;;;;;5054583;28;20390;-85
2023/02/03 11:15:44;;;;;;;1.02;0.40;;;;;;;;;;5055684;28;20049;-86
2023/02/03 11:18:30;;;;;;;0.10;0.10;;;;;;;;;;5069150;28;20057;-86
2023/02/03 11:20:58;;;;;;;1.40;0.40;;;;;;;;;;5056702;28;20428;-86
2023/02/03 11:23:25;;;;;;;0.28;0.28;;;;;;;;;;5054031;28;20045;-86
2023/02/03 11:25:52;;;;;;;2.00;0.50;;;;;;;;;;5053923;28;20052;-86
2023/02/03 11:28:20;;;;;;;0.20;0.20;;;;;;;;;;5055012;28;20045;-86
2023/02/03 11:30:54;;;;;;;0.35;0.10;;;;;;;;;;5053819;28;20135;-86
2023/02/03 11:33:21;;;;;;;;;;;;;;;;;;5054144;28;20080;-86
2023/02/03 11:35:59;;;;;;;0.10;0.10;;;;;;;;;;5053769;28;19925;-87
2023/02/03 11:38:28;;;;;;;0.30;0.30;;;;;;;;;;5054909;28;20053;-86
2023/02/03 11:40:58;;;;;;;0.20;0.20;;;;;;;;;;5053933;28;20124;-86
2023/02/03 11:43:27;;;;;;;0.65;0.30;;;;;;;;;;5054641;28;20045;-86
2023/02/03 11:46:00;;;;;;;1.10;0.17;;;;;;;;;;5053861;28;20061;-85
2023/02/03 11:48:32;;;;;;;0.20;0.17;;;;;;;;;;5053387;28;20053;-85
2023/02/03 11:51:05;;;;;;;1.63;0.15;;;;;;;;;;5056354;28;20055;-86
2023/02/03 11:53:51;;;;;;;2.10;0.30;;;;;;;;;;5053831;28;20045;-86
2023/02/03 11:56:42;;;;;;;0.52;0.10;;;;;;;;;;5053442;28;20072;-90
2023/02/03 11:59:25;;;;;;;0.10;0.10;;;;;;;;;;5053812;28;20091;-85
2023/02/03 12:02:10;;;;;;;0.10;0.10;;;;;;;;;;5054538;28;20051;-86
2023/02/03 12:04:38;;;;;;;0.40;0.30;;;;;;;;;;5052955;28;20056;-85
2023/02/03 12:07:28;;;;;;;1.98;0.22;;;;;;;;;;5054338;28;20075;-85
2023/02/03 12:09:59;;;;;;;0.10;0.10;;;;;;;;;;5053147;28;20059;-86
2023/02/03 12:12:48;;;;;;;0.10;0.10;;;;;;;;;;5053266;28;20049;-86
2023/02/03 12:15:19;;;;;;;0.10;0.10;;;;;;;;;;5052910;28;20091;-86
2023/02/03 12:17:54;;;;;;;0.10;0.10;;;;;;;;;;5053470;28;20144;-87
2023/02/03 12:20:30;;;;;;;0.20;0.13;;;;;;;;;;5053076;28;20055;-86
2023/02/03 12:23:10;;;;;;;1.23;0.20;;;;;;;;;;5053044;28;20045;-86
2023/02/03 12:25:58;;;;;;;0.38;0.38;;;;;;;;;;5052819;28;20119;-85
2023/02/03 12:28:26;;;;;;;0.10;0.10;;;;;;;;;;5054645;28;20049;-85
2023/02/03 12:31:04;;;;;;;0.55;0.20;;;;;;;;;;5064649;28;20515;-86
2023/02/03 12:33:34;;;;;;;0.65;0.10;;;;;;;;;;5055987;28;20045;-84
2023/02/03 12:36:01;;;;;;;0.30;0.30;;;;;;;;;;5053517;28;20048;-85
2023/02/03 12:38:32;;;;;;;0.20;0.20;;;;;;;;;;5052534;28;20157;-85
2023/02/03 12:41:00;;;;;;;0.30;0.17;;;;;;;;;;5052568;28;20056;-85
2023/02/03 12:43:36;;;;;;;1.23;0.15;;;;;;;;;;5052382;28;20148;-85
2023/02/03 12:46:07;;;;;;;1.98;0.20;;;;;;;;;;5052288;28;20485;-85
2023/02/03 12:48:44;;;;;;;4.65;0.52;;;;;;;;;;5053452;28;20060;-85
2023/02/03 12:51:15;;;;;;;5.05;0.22;;;;;;;;;;5053535;28;20048;-85
2023/02/03 12:53:47;;;;;;;0.90;0.20;;;;;;;;;;5052424;28;20048;-85
2023/02/03 12:56:17;;;;;;;0.50;0.15;;;;;;;;;;5053022;28;20044;-84
2023/02/03 12:58:47;;;;;;;0.20;0.20;;;;;;;;;;5053190;28;20135;-85
2023/02/03 13:01:18;;;;;;;0.40;0.40;;;;;;;;;;5052587;28;20140;-87
2023/02/03 13:03:48;;;;;;;0.80;0.45;;;;;;;;;;5052260;28;20045;-86
2023/02/03 13:06:19;;;;;;;0.40;0.30;;;;;;;;;;5053163;28;20053;-85
2023/02/03 13:08:53;;;;;;;2.28;1.08;;;;;;;;;;5052764;28;20077;-85
2023/02/03 13:11:23;;;;;;;3.13;2.00;;;;;;;;;;5052524;28;20496;-84
2023/02/03 13:13:55;;;;;;;2.08;0.70;;;;;;;;;;5052109;28;20045;-85
2023/02/03 13:16:32;;;;;;;0.30;0.30;;;;;;;;;;5052681;28;20427;-85
2023/02/03 13:19:02;;;;;;;0.35;0.35;;;;;;;;;;5051523;28;20053;-85
2023/02/03 13:21:30;;;;;;;1.00;0.45;;;;;;;;;;5051554;28;20053;-85
2023/02/03 13:23:58;;;;;;;0.20;0.20;;;;;;;;;;5051625;28;20136;-85
2023/02/03 13:26:47;;;;;;;0.70;0.70;;;;;;;;;;5051616;28;20048;-85
2023/02/03 13:29:28;;;;;;;1.52;0.60;;;;;;;;;;5051835;28;20049;-86
2023/02/03 13:32:10;;;;;;;0.32;0.20;;;;;;;;;;5051978;28;20051;-85
2023/02/03 13:34:43;;;;;;;1.55;0.30;;;;;;;;;;5051693;28;20059;-86
2023/02/03 13:37:23;;;;;;;3.13;0.30;;;;;;;;;;5051863;28;20085;-86
2023/02/03 13:39:50;;;;;;;7.35;0.98;;;;;;;;;;5051893;28;20055;-86
2023/02/03 13:42:17;;;;;;;4.97;0.57;;;;;;;;;;5051478;28;20128;-86
2023/02/03 13:44:50;;;;;;;2.75;0.40;;;;;;;;;;5051213;28;20068;-86
2023/02/03 13:47:22;;;;;;;0.95;0.35;;;;;;;;;;5051960;28;20049;-87
2023/02/03 13:49:53;;;;;;;1.05;0.50;;;;;;;;;;5052110;28;20059;-88
2023/02/03 13:52:23;;;;;;;2.05;0.75;;;;;;;;;;5052062;28;20045;-87
2023/02/03 13:54:51;;;;;;;5.78;1.00;;;;;;;;;;5051670;28;20052;-88
2023/02/03 13:57:23;;;;;;;1.00;0.50;;;;;;;;;;5051873;28;20041;-88
2023/02/03 13:59:50;;;;;;;0.98;0.68;;;;;;;;;;5052010;28;20049;-89
2023/02/03 14:02:21;;;;;;;3.20;1.80;;;;;;;;;;5051939;28;20073;-89
2023/02/03 14:04:50;;;;;;;4.80;1.85;;;;;;;;;;5053119;28;20072;-89
2023/02/03 14:07:26;;;;;;;1.48;1.38;;;;;;;;;;5054834;28;20064;-89
2023/02/03 14:10:05;;;;;;;2.53;1.75;;;;;;;;;;5056058;28;20048;-88
2023/02/03 14:12:34;;;;;;;0.35;0.35;;;;;;;;;;5056801;28;20056;-88
2023/02/03 14:15:16;;;;;;;0.30;0.30;;;;;;;;;;5055668;28;20053;-88
2023/02/03 14:17:43;;;;;;;0.30;0.30;;;;;;;;;;5057165;28;20127;-88
2023/02/03 14:20:25;;;;;;;0.10;0.10;;;;;;;;;;5055591;28;20143;-88
2023/02/03 14:22:53;;;;;;;0.30;0.20;;;;;;;;;;5055701;28;20080;-93
2023/02/03 14:25:20;;;;;;;1.13;0.17;;;;;;;;;;5057266;28;20053;-88
2023/02/03 14:27:48;;;;;;;0.22;0.22;;;;;;;;;;5055769;28;20051;-87
2023/02/03 14:30:16;;;;;;;0.38;0.38;;;;;;;;;;5055656;28;20049;-87
2023/02/03 14:32:50;;;;;;;0.45;0.45;;;;;;;;;;5055861;28;20079;-87
2023/02/03 14:35:20;;;;;;;0.30;0.30;;;;;;;;;;5055556;28;20045;-90
2023/02/03 14:38:07;;;;;;;0.30;0.30;;;;;;;;;;5055889;28;20085;-88
2023/02/03 14:40:41;;;;;;;0.40;0.40;;;;;;;;;;5049612;28;20045;-88
2023/02/03 14:43:29;;;;;;;0.20;0.20;;;;;;;;;;5055166;28;20057;-88
2023/02/03 14:46:08;;;;;;;0.65;0.22;;;;;;;;;;5055718;28;20063;-88
2023/02/03 14:48:58;;;;;;;0.10;0.10;;;;;;;;;;5055076;28;20148;-88
2023/02/03 14:51:34;;;;;;;0.80;0.20;;;;;;;;;;5053342;28;20063;-88
2023/02/03 14:54:10;;;;;;;0.70;0.70;;;;;;;;;;5055667;28;20382;-88
2023/02/03 14:59:43;;;;;;;0.20;0.20;;;;;;;;;;5057019;28;20140;-87
2023/02/03 15:02:13;;;;;;;0.38;0.20;;;;;;;;;;5055097;28;20049;-87
2023/02/03 15:04:41;;;;;;;2.08;0.40;;;;;;;;;;5043876;28;20064;-87